createdAt,value
2022-07-29T00:01:58.078Z,0.98
2022-07-29T00:06:59.680Z,1.60
2022-07-29T00:12:02.489Z,1.40
2022-07-29T00:17:04.081Z,1.83
2022-07-29T00:22:05.627Z,1.40
2022-07-29T00:27:07.186Z,1.35
2022-07-29T00:32:08.687Z,1.92
2022-07-29T00:37:10.198Z,1.40
2022-07-29T00:42:11.814Z,1.17
2022-07-29T00:47:13.554Z,2.15
2022-07-29T00:52:17.031Z,1.17
2022-07-29T00:57:19.034Z,1.38
2022-07-29T01:02:20.704Z,1.33
2022-07-29T01:07:22.263Z,1.20
2022-07-29T01:12:26.501Z,1.10
2022-07-29T01:17:53.661Z,1.42
2022-07-29T01:23:04.584Z,1.35
2022-07-29T01:28:21.187Z,1.33
2022-07-29T01:33:46.404Z,1.25
2022-07-29T01:38:55.876Z,1.30
2022-07-29T01:44:02.412Z,1.20
2022-07-29T01:49:16.090Z,1.33
2022-07-29T01:54:50.548Z,1.60
2022-07-29T01:59:53.630Z,1.23
2022-07-29T02:04:56.929Z,1.85
2022-07-29T02:09:59.735Z,1.55
2022-07-29T02:15:03.978Z,1.35
2022-07-29T02:20:06.377Z,1.33
2022-07-29T02:25:14.182Z,1.63
2022-07-29T02:30:15.930Z,1.63
2022-07-29T02:35:18.308Z,1.83
2022-07-29T02:40:19.978Z,1.92
2022-07-29T02:45:22.359Z,1.58
2022-07-29T02:50:33.655Z,2.17
2022-07-29T02:55:43.401Z,2.17
2022-07-29T03:00:48.189Z,1.90
2022-07-29T03:05:49.773Z,2.25
2022-07-29T03:10:52.452Z,2.30
2022-07-29T03:15:54.924Z,2.28
2022-07-29T03:20:56.618Z,2.40
2022-07-29T03:25:58.361Z,2.65
2022-07-29T03:30:59.919Z,2.40
2022-07-29T03:36:03.375Z,2.28
2022-07-29T03:41:10.391Z,2.30
2022-07-29T03:46:14.753Z,3.13
2022-07-29T03:51:16.405Z,2.35
2022-07-29T03:56:21.919Z,2.53
2022-07-29T04:01:23.841Z,2.15
2022-07-29T04:06:26.703Z,2.53
2022-07-29T04:11:28.270Z,2.88
2022-07-29T04:16:29.933Z,2.63
2022-07-29T04:21:31.515Z,3.10
2022-07-29T04:26:33.381Z,2.70
2022-07-29T04:31:35.105Z,2.78
2022-07-29T04:36:36.826Z,2.78
2022-07-29T04:41:38.325Z,2.22
2022-07-29T04:46:40.128Z,3.17
2022-07-29T04:51:41.755Z,2.70
2022-07-29T04:56:43.394Z,2.83
2022-07-29T05:01:44.938Z,2.88
2022-07-29T05:06:46.496Z,2.92
2022-07-29T05:11:47.985Z,3.60
2022-07-29T05:16:52.143Z,2.70
2022-07-29T05:21:53.650Z,2.65
2022-07-29T05:26:55.304Z,2.80
2022-07-29T05:31:56.804Z,2.45
2022-07-29T05:36:58.598Z,3.20
2022-07-29T05:42:00.109Z,2.42
2022-07-29T05:47:01.596Z,2.53
2022-07-29T05:52:03.640Z,2.55
2022-07-29T05:57:06.175Z,2.88
2022-07-29T06:02:07.712Z,3.45
2022-07-29T06:07:09.690Z,2.50
2022-07-29T06:12:11.244Z,3.05
2022-07-29T06:17:12.798Z,2.40
2022-07-29T06:22:17.147Z,2.88
2022-07-29T06:27:18.655Z,2.90
2022-07-29T06:32:20.216Z,3.47
2022-07-29T06:37:24.529Z,2.58
2022-07-29T06:42:27.772Z,3.00
2022-07-29T06:47:29.363Z,2.78
2022-07-29T06:52:30.854Z,2.55
2022-07-29T06:57:33.198Z,3.22
2022-07-29T07:02:34.725Z,2.58
2022-07-29T07:07:36.327Z,3.05
2022-07-29T07:12:37.847Z,3.25
2022-07-29T07:17:39.346Z,2.53
2022-07-29T07:22:41.057Z,2.75
2022-07-29T07:27:43.409Z,2.80
2022-07-29T07:32:45.047Z,2.38
2022-07-29T07:37:46.928Z,2.10
2022-07-29T07:42:48.544Z,2.78
2022-07-29T07:47:50.600Z,2.33
2022-07-29T07:52:54.715Z,2.30
2022-07-29T07:57:56.570Z,2.78
2022-07-29T08:02:58.122Z,2.88
2022-07-29T08:07:59.705Z,2.15
2022-07-29T08:13:04.820Z,2.42
2022-07-29T08:18:08.653Z,2.40
2022-07-29T08:23:10.580Z,2.85
2022-07-29T08:28:12.180Z,1.80
2022-07-29T08:33:13.929Z,2.53
2022-07-29T08:38:15.471Z,2.70
2022-07-29T08:43:17.177Z,2.40
2022-07-29T08:48:21.785Z,2.20
2022-07-29T08:53:27.449Z,1.80
2022-07-29T09:03:40.018Z,1.90
2022-07-29T09:08:42.518Z,1.77
2022-07-29T09:13:45.384Z,1.40
2022-07-29T09:18:47.918Z,1.77
2022-07-29T09:24:11.935Z,1.95
2022-07-29T09:29:16.196Z,2.00
2022-07-29T09:34:30.762Z,2.17
2022-07-29T09:39:38.983Z,2.17
2022-07-29T09:44:49.346Z,1.90
2022-07-29T09:49:59.289Z,2.20
2022-07-29T09:55:13.655Z,2.40
2022-07-29T10:00:22.753Z,1.67
2022-07-29T10:05:26.980Z,2.00
2022-07-29T10:10:40.913Z,1.98
2022-07-29T10:15:46.163Z,1.77
2022-07-29T10:20:49.351Z,1.83
2022-07-29T10:25:51.406Z,1.80
2022-07-29T10:30:59.999Z,1.25
2022-07-29T10:36:25.478Z,1.30
2022-07-29T10:41:47.688Z,1.48
2022-07-29T10:46:50.371Z,1.13
2022-07-29T10:52:11.535Z,1.35
2022-07-29T10:57:17.703Z,1.23
2022-07-29T11:02:41.929Z,1.30
2022-07-29T11:08:21.221Z,2.17
2022-07-29T11:13:51.511Z,1.27
2022-07-29T11:19:13.452Z,1.70
2022-07-29T11:24:29.098Z,1.40
2022-07-29T11:29:33.215Z,1.65
2022-07-29T11:34:42.444Z,1.10
2022-07-29T11:39:48.539Z,1.25
2022-07-29T11:45:04.337Z,1.08
2022-07-29T11:50:33.821Z,1.25
2022-07-29T11:55:50.852Z,1.17
2022-07-29T12:00:55.453Z,1.33
2022-07-29T12:05:57.699Z,1.05
2022-07-29T12:10:59.531Z,0.90
2022-07-29T12:16:02.319Z,1.42
2022-07-29T12:21:07.078Z,0.85
2022-07-29T12:26:10.937Z,0.93
2022-07-29T12:31:43.406Z,1.15
2022-07-29T12:36:45.265Z,1.20
2022-07-29T12:41:47.191Z,1.20
2022-07-29T12:47:03.081Z,1.25
2022-07-29T12:52:28.552Z,1.55
2022-07-29T12:57:30.681Z,0.95
2022-07-29T13:02:32.841Z,1.10
2022-07-29T13:07:55.778Z,1.00
2022-07-29T13:13:13.024Z,1.40
2022-07-29T13:18:37.217Z,1.27
2022-07-29T13:23:38.865Z,1.45
2022-07-29T13:28:44.145Z,1.20
2022-07-29T13:33:46.179Z,1.63
2022-07-29T13:38:47.772Z,1.25
2022-07-29T13:43:50.026Z,1.23
2022-07-29T13:48:51.797Z,1.20
2022-07-29T13:53:53.462Z,1.10
2022-07-29T13:58:55.174Z,1.30
2022-07-29T14:03:56.785Z,1.08
2022-07-29T14:08:58.381Z,1.15
2022-07-29T14:14:00.294Z,1.00
2022-07-29T14:19:04.779Z,1.30
2022-07-29T14:24:14.160Z,1.83
2022-07-29T14:29:21.200Z,0.90
2022-07-29T14:34:22.938Z,1.23
2022-07-29T14:39:24.505Z,1.23
2022-07-29T14:44:33.403Z,1.30
2022-07-29T14:49:35.900Z,1.08
2022-07-29T14:54:39.088Z,1.50
2022-07-29T14:59:41.836Z,1.40
2022-07-29T15:04:43.399Z,1.50
2022-07-29T15:09:49.294Z,1.40
2022-07-29T15:14:51.699Z,1.58
2022-07-29T15:19:53.473Z,1.50
2022-07-29T15:24:56.195Z,2.07
2022-07-29T15:29:58.215Z,1.80
2022-07-29T15:34:59.823Z,1.92
2022-07-29T15:40:01.711Z,1.80
2022-07-29T15:45:04.130Z,1.48
2022-07-29T15:50:09.462Z,2.00
2022-07-29T15:55:11.398Z,1.75
2022-07-29T16:00:13.807Z,1.85
2022-07-29T16:05:15.496Z,1.75
2022-07-29T16:10:17.018Z,1.85
2022-07-29T16:15:18.812Z,1.20
2022-07-29T16:20:21.012Z,1.27
2022-07-29T16:25:38.398Z,1.92
2022-07-29T16:30:45.352Z,1.55
2022-07-29T16:35:47.076Z,1.33
2022-07-29T16:40:48.916Z,1.48
2022-07-29T16:45:50.630Z,1.48
2022-07-29T16:50:52.429Z,1.65
2022-07-29T16:55:55.778Z,2.58
2022-07-29T17:05:59.070Z,1.70
2022-07-29T17:11:00.601Z,1.85
2022-07-29T17:16:02.392Z,1.88
2022-07-29T17:21:04.176Z,1.80
2022-07-29T17:26:05.725Z,1.63
2022-07-29T17:31:07.614Z,1.50
2022-07-29T17:36:24.295Z,1.25
2022-07-29T17:41:26.187Z,1.17
2022-07-29T17:46:27.930Z,1.00
2022-07-29T17:51:30.724Z,1.27
2022-07-29T17:56:32.501Z,1.40
2022-07-29T18:01:34.733Z,1.20
2022-07-29T18:06:36.327Z,1.15
2022-07-29T18:11:37.970Z,1.50
2022-07-29T18:16:40.787Z,0.87
2022-07-29T18:21:51.224Z,1.08
2022-07-29T18:26:56.650Z,0.93
2022-07-29T18:32:01.608Z,1.00
2022-07-29T18:37:04.211Z,0.85
2022-07-29T18:42:05.940Z,1.27
2022-07-29T18:47:07.582Z,1.17
2022-07-29T18:52:12.912Z,0.82
2022-07-29T18:57:54.610Z,1.25
2022-07-29T19:02:38.181Z,1.23
2022-07-29T19:07:40.493Z,1.25
2022-07-29T19:12:42.490Z,1.20
2022-07-29T19:17:45.071Z,1.50
2022-07-29T19:22:46.660Z,1.38
2022-07-29T19:27:48.178Z,1.60
2022-07-29T19:32:49.794Z,1.35
2022-07-29T19:37:52.432Z,1.17
2022-07-29T19:42:54.976Z,1.17
2022-07-29T19:48:01.264Z,1.30
2022-07-29T19:53:03.542Z,1.85
2022-07-29T19:58:06.124Z,1.70
2022-07-29T20:08:11.441Z,1.40
2022-07-29T20:13:13.118Z,1.80
2022-07-29T20:18:16.027Z,2.13
2022-07-29T20:23:19.358Z,2.00
2022-07-29T20:28:20.890Z,2.05
2022-07-29T20:33:22.580Z,2.00
2022-07-29T20:38:24.154Z,2.03
2022-07-29T20:43:27.201Z,2.30
2022-07-29T20:48:28.791Z,2.75
2022-07-29T20:53:31.424Z,2.05
2022-07-29T20:58:34.316Z,2.20
2022-07-29T21:03:36.062Z,2.75
2022-07-29T21:08:38.712Z,2.38
2022-07-29T21:13:40.686Z,3.10
2022-07-29T21:18:46.325Z,3.08
2022-07-29T21:23:48.019Z,2.75
2022-07-29T21:28:50.505Z,2.30
2022-07-29T21:33:55.053Z,2.80
2022-07-29T21:38:57.101Z,2.88
2022-07-29T21:43:59.553Z,3.53
2022-07-29T21:49:03.186Z,2.25
2022-07-29T21:54:06.473Z,3.00
2022-07-29T21:59:09.821Z,2.90
2022-07-29T22:04:14.469Z,3.10
2022-07-29T22:09:16.596Z,2.40
2022-07-29T22:14:19.837Z,3.30
2022-07-29T22:19:29.035Z,2.90
2022-07-29T22:24:32.080Z,3.92
2022-07-29T22:29:33.854Z,4.22
2022-07-29T22:34:37.870Z,4.47
2022-07-29T22:39:40.726Z,4.88
2022-07-29T22:44:42.644Z,3.67
2022-07-29T22:49:44.344Z,4.18
2022-07-29T22:54:47.047Z,4.55
2022-07-29T22:59:50.460Z,4.03
2022-07-29T23:04:52.021Z,3.83
2022-07-29T23:09:53.520Z,4.13
2022-07-29T23:14:55.121Z,4.57
2022-07-29T23:19:56.794Z,4.20
2022-07-29T23:24:58.724Z,5.00
2022-07-29T23:30:00.374Z,4.78
2022-07-29T23:35:01.942Z,5.53
2022-07-29T23:40:05.247Z,5.70
2022-07-29T23:45:07.386Z,6.38
2022-07-29T23:50:13.960Z,6.32
2022-07-29T23:55:37.845Z,6.25
